Time;durP1;ratioP1;P1;durP2;ratioP2;P2;SDS_P1;SDS_P2;PMS_P1;PMS_P2;Temp;Humidity;BMP_temperature;BMP_pressure;BME280_temperature;BME280_humidity;BME280_pressure;Samples;Min_cycle;Max_cycle;Signal;HPM_P1;HPM_P2
2023/07/05 00:04:10;;;;;;;10.80;6.03;;;;;;;;;;21007813;28;20474;-60
2023/07/05 00:14:12;;;;;;;10.65;6.18;;;;;;;;;;21007145;28;20124;-60
2023/07/05 00:24:13;;;;;;;10.73;5.85;;;;;;;;;;21006375;28;20045;-61
2023/07/05 00:34:14;;;;;;;9.85;5.65;;;;;;;;;;21005281;28;20056;-61
2023/07/05 00:44:15;;;;;;;9.13;5.32;;;;;;;;;;21005032;28;20070;-60
2023/07/05 00:54:17;;;;;;;9.93;5.40;;;;;;;;;;21003974;28;20493;-61
2023/07/05 01:04:19;;;;;;;8.43;5.32;;;;;;;;;;21003202;28;20044;-61
2023/07/05 01:14:25;;;;;;;8.68;5.35;;;;;;;;;;21001869;28;20052;-60
2023/07/05 01:24:48;;;;;;;9.38;5.18;;;;;;;;;;21001331;28;20036;-60
2023/07/05 01:34:59;;;;;;;6.95;4.32;;;;;;;;;;21000116;28;20135;-61
2023/07/05 01:45:01;;;;;;;9.70;5.32;;;;;;;;;;21000080;28;20543;-60
2023/07/05 01:55:05;;;;;;;10.93;5.47;;;;;;;;;;20999191;28;20094;-60
2023/07/05 02:05:07;;;;;;;9.13;5.15;;;;;;;;;;20998353;28;20040;-60
2023/07/05 02:15:09;;;;;;;9.43;4.75;;;;;;;;;;20996078;28;20044;-60
2023/07/05 02:25:10;;;;;;;6.88;4.45;;;;;;;;;;20996991;28;20513;-60
2023/07/05 02:35:11;;;;;;;8.48;4.70;;;;;;;;;;20996207;28;20052;-61
2023/07/05 02:45:12;;;;;;;11.82;5.50;;;;;;;;;;20996737;28;20474;-61
2023/07/05 02:55:13;;;;;;;8.77;5.20;;;;;;;;;;20994672;28;20045;-60
2023/07/05 03:05:14;;;;;;;9.80;4.85;;;;;;;;;;20994683;28;20056;-61
2023/07/05 03:15:15;;;;;;;11.73;6.03;;;;;;;;;;20995221;28;20119;-60
2023/07/05 03:25:16;;;;;;;12.98;5.50;;;;;;;;;;20994914;28;20044;-61
2023/07/05 03:35:17;;;;;;;8.68;5.13;;;;;;;;;;21007266;28;20084;-61
2023/07/05 03:45:19;;;;;;;10.32;5.57;;;;;;;;;;21009206;28;20090;-61
2023/07/05 03:55:20;;;;;;;10.95;6.68;;;;;;;;;;21008376;28;20099;-61
2023/07/05 04:05:21;;;;;;;24.98;13.48;;;;;;;;;;21007703;28;20182;-59
2023/07/05 04:15:22;;;;;;;9.75;5.15;;;;;;;;;;21006920;28;20098;-61
2023/07/05 04:25:23;;;;;;;9.43;5.47;;;;;;;;;;21006392;28;20083;-61
2023/07/05 04:35:24;;;;;;;10.32;5.68;;;;;;;;;;21004893;28;20402;-60
2023/07/05 04:45:25;;;;;;;10.93;6.03;;;;;;;;;;21003186;28;20044;-60
2023/07/05 04:55:26;;;;;;;10.63;5.95;;;;;;;;;;21003564;28;20553;-59
2023/07/05 05:05:28;;;;;;;8.88;4.65;;;;;;;;;;21001709;28;20044;-61
2023/07/05 05:15:29;;;;;;;12.90;5.88;;;;;;;;;;21002115;28;20569;-60
2023/07/05 05:25:30;;;;;;;8.75;5.75;;;;;;;;;;20999884;28;20051;-60
2023/07/05 05:35:32;;;;;;;12.38;5.25;;;;;;;;;;20999697;28;20475;-60
2023/07/05 05:45:33;;;;;;;10.88;5.68;;;;;;;;;;20998944;28;20056;-61
2023/07/05 05:55:36;;;;;;;9.85;5.78;;;;;;;;;;20998677;28;20040;-60
2023/07/05 06:05:37;;;;;;;11.45;5.65;;;;;;;;;;20998441;28;20402;-62
2023/07/05 06:15:38;;;;;;;13.05;6.03;;;;;;;;;;20997900;28;20053;-61
2023/07/05 06:25:39;;;;;;;8.57;4.70;;;;;;;;;;20996144;28;20094;-60
2023/07/05 06:35:40;;;;;;;8.15;5.22;;;;;;;;;;20996385;28;20057;-60
2023/07/05 06:45:41;;;;;;;9.35;5.18;;;;;;;;;;20996262;28;20067;-61
2023/07/05 06:55:42;;;;;;;16.85;6.80;;;;;;;;;;20995558;28;20409;-61
2023/07/05 07:05:53;;;;;;;9.65;5.50;;;;;;;;;;21001430;28;20106;-60
2023/07/05 07:16:01;;;;;;;14.23;6.13;;;;;;;;;;21011929;28;20060;-60
2023/07/05 07:26:04;;;;;;;13.57;6.32;;;;;;;;;;21010913;28;20044;-60
2023/07/05 07:36:09;;;;;;;14.88;6.13;;;;;;;;;;21009080;28;20126;-61
2023/07/05 07:46:14;;;;;;;11.20;5.80;;;;;;;;;;21009247;28;20045;-61
2023/07/05 07:56:17;;;;;;;7.87;4.70;;;;;;;;;;21008878;28;20077;-66
2023/07/05 08:06:18;;;;;;;8.43;4.88;;;;;;;;;;21008645;28;20040;-69
2023/07/05 08:16:21;;;;;;;11.10;5.53;;;;;;;;;;21006716;28;20497;-68
2023/07/05 08:26:22;;;;;;;9.35;5.35;;;;;;;;;;21005095;28;20083;-62
2023/07/05 08:36:34;;;;;;;12.57;5.90;;;;;;;;;;21004744;28;20410;-61
2023/07/05 08:46:37;;;;;;;10.80;5.32;;;;;;;;;;21005142;28;20440;-67
2023/07/05 08:56:40;;;;;;;11.38;5.60;;;;;;;;;;21004025;28;20036;-69
2023/07/05 09:06:55;;;;;;;9.80;5.30;;;;;;;;;;21003276;28;20080;-68
2023/07/05 09:16:59;;;;;;;8.73;5.25;;;;;;;;;;21002120;28;20055;-67
2023/07/05 09:27:20;;;;;;;8.80;5.30;;;;;;;;;;20999822;28;20120;-61
2023/07/05 09:37:23;;;;;;;11.15;5.72;;;;;;;;;;20999001;28;20059;-62
2023/07/05 09:47:24;;;;;;;12.07;5.78;;;;;;;;;;20999629;28;20198;-61
2023/07/05 09:57:26;;;;;;;13.85;5.40;;;;;;;;;;20997694;28;20055;-62
2023/07/05 10:07:29;;;;;;;10.88;5.40;;;;;;;;;;20997879;28;20044;-62
2023/07/05 10:17:44;;;;;;;9.00;5.72;;;;;;;;;;20997894;28;20124;-62
2023/07/05 10:27:46;;;;;;;;;;;;;;;;;;20998028;28;20044;-62
2023/07/05 10:37:48;;;;;;;12.80;6.85;;;;;;;;;;20994711;28;19964;-61
2023/07/05 10:47:53;;;;;;;11.77;5.97;;;;;;;;;;20995677;28;20465;-62
2023/07/05 10:57:59;;;;;;;10.05;5.55;;;;;;;;;;20993540;28;20102;-62
2023/07/05 11:08:02;;;;;;;11.18;6.30;;;;;;;;;;20993929;28;20394;-62
2023/07/05 11:18:04;;;;;;;11.27;5.93;;;;;;;;;;20993754;28;20049;-62
2023/07/05 11:28:25;;;;;;;16.65;6.43;;;;;;;;;;20993651;28;20101;-62
2023/07/05 11:38:40;;;;;;;18.67;6.63;;;;;;;;;;20993910;28;20055;-61
2023/07/05 11:48:43;;;;;;;11.35;6.47;;;;;;;;;;20992512;28;20167;-62
2023/07/05 11:58:47;;;;;;;13.55;6.60;;;;;;;;;;21008743;28;20045;-61
2023/07/05 12:08:50;;;;;;;21.67;6.03;;;;;;;;;;21008082;28;20041;-62
2023/07/05 12:18:51;;;;;;;14.60;6.63;;;;;;;;;;21007293;28;20047;-61
2023/07/05 12:28:52;;;;;;;12.23;6.72;;;;;;;;;;21004328;28;20041;-62
2023/07/05 12:39:07;;;;;;;12.82;6.20;;;;;;;;;;21005850;28;20187;-62
2023/07/05 12:49:12;;;;;;;10.17;6.43;;;;;;;;;;21002849;28;20045;-62
2023/07/05 12:59:19;;;;;;;15.73;6.45;;;;;;;;;;21002978;28;20036;-63
2023/07/05 13:09:31;;;;;;;14.63;6.97;;;;;;;;;;21002504;28;20502;-62
2023/07/05 13:19:42;;;;;;;14.57;7.07;;;;;;;;;;21002366;28;20053;-63
2023/07/05 13:29:43;;;;;;;14.98;6.97;;;;;;;;;;21000208;28;20041;-63
2023/07/05 13:39:44;;;;;;;11.68;6.28;;;;;;;;;;20999138;28;20502;-62
2023/07/05 13:49:45;;;;;;;17.30;6.78;;;;;;;;;;20999575;28;20508;-62
2023/07/05 13:59:46;;;;;;;11.60;5.85;;;;;;;;;;20998517;28;20048;-63
2023/07/05 14:09:48;;;;;;;13.27;6.75;;;;;;;;;;20998067;28;20036;-61
2023/07/05 14:19:50;;;;;;;16.20;6.38;;;;;;;;;;20996008;28;20052;-62
2023/07/05 14:29:52;;;;;;;14.35;5.82;;;;;;;;;;20997672;28;20434;-62
2023/07/05 14:39:53;;;;;;;15.63;6.47;;;;;;;;;;20998087;28;20060;-62
2023/07/05 14:49:54;;;;;;;13.63;5.53;;;;;;;;;;20995720;28;20444;-62
2023/07/05 14:59:57;;;;;;;13.65;5.72;;;;;;;;;;20995396;28;20120;-63
2023/07/05 15:09:58;;;;;;;17.95;6.07;;;;;;;;;;20994036;28;20040;-63
2023/07/05 15:19:59;;;;;;;16.52;5.43;;;;;;;;;;20994248;28;20045;-61
2023/07/05 15:30:00;;;;;;;18.27;8.18;;;;;;;;;;21006069;28;20055;-64
2023/07/05 15:40:04;;;;;;;11.25;4.75;;;;;;;;;;21008019;28;20056;-64
2023/07/05 15:50:06;;;;;;;9.52;3.47;;;;;;;;;;21005167;28;20048;-62
2023/07/05 16:00:08;;;;;;;14.55;4.65;;;;;;;;;;21005178;28;20037;-61
2023/07/05 16:10:10;;;;;;;8.38;3.67;;;;;;;;;;21004292;28;20075;-64
2023/07/05 16:20:12;;;;;;;9.82;4.25;;;;;;;;;;21003297;28;20085;-62
2023/07/05 16:30:13;;;;;;;7.80;4.10;;;;;;;;;;21003018;28;20505;-63
2023/07/05 16:40:16;;;;;;;7.75;4.28;;;;;;;;;;21001752;28;20097;-62
2023/07/05 16:50:17;;;;;;;10.60;4.13;;;;;;;;;;21004335;28;20094;-67
2023/07/05 17:00:18;;;;;;;11.85;5.07;;;;;;;;;;21003902;28;20046;-67
2023/07/05 17:10:20;;;;;;;7.82;4.63;;;;;;;;;;21000059;28;20589;-67
2023/07/05 17:20:21;;;;;;;12.75;4.35;;;;;;;;;;20996823;28;20052;-66
2023/07/05 17:30:22;;;;;;;10.20;4.90;;;;;;;;;;21001002;28;20040;-66
2023/07/05 17:40:24;;;;;;;8.70;4.90;;;;;;;;;;21001710;28;20056;-66
2023/07/05 17:50:26;;;;;;;9.27;5.50;;;;;;;;;;20996827;28;20509;-66
2023/07/05 18:00:28;;;;;;;11.60;5.35;;;;;;;;;;20998854;28;20114;-66
2023/07/05 18:10:29;;;;;;;16.67;5.88;;;;;;;;;;20998439;28;20102;-66
2023/07/05 18:20:30;;;;;;;8.50;4.35;;;;;;;;;;20996385;28;20049;-66
2023/07/05 18:30:31;;;;;;;10.10;5.30;;;;;;;;;;20995811;28;20051;-67
2023/07/05 18:40:32;;;;;;;10.20;5.70;;;;;;;;;;20995533;28;20106;-66
2023/07/05 18:50:34;;;;;;;11.38;5.55;;;;;;;;;;20995824;28;20087;-66
2023/07/05 19:00:36;;;;;;;14.80;5.95;;;;;;;;;;20999246;28;20090;-65
2023/07/05 19:10:37;;;;;;;8.75;4.63;;;;;;;;;;21010947;28;20485;-66
2023/07/05 19:20:39;;;;;;;11.07;5.28;;;;;;;;;;21010385;28;20470;-66
2023/07/05 19:30:42;;;;;;;11.23;5.65;;;;;;;;;;21009523;28;20041;-66
2023/07/05 19:40:49;;;;;;;13.40;6.28;;;;;;;;;;21009851;28;20101;-67
2023/07/05 19:50:50;;;;;;;13.95;6.43;;;;;;;;;;21007173;28;20052;-67
2023/07/05 20:00:53;;;;;;;14.57;6.10;;;;;;;;;;21007389;28;20404;-65
2023/07/05 20:10:54;;;;;;;13.70;6.13;;;;;;;;;;21005127;28;20097;-67
2023/07/05 20:20:56;;;;;;;11.55;5.93;;;;;;;;;;21005585;28;20056;-68
2023/07/05 20:30:57;;;;;;;10.18;5.45;;;;;;;;;;21004175;28;20106;-67
2023/07/05 20:40:59;;;;;;;10.57;5.25;;;;;;;;;;21002250;28;20056;-65
2023/07/05 20:51:01;;;;;;;8.25;5.30;;;;;;;;;;21001430;28;20053;-69
2023/07/05 21:01:03;;;;;;;9.25;5.15;;;;;;;;;;21002141;28;20044;-68
2023/07/05 21:11:05;;;;;;;10.38;5.50;;;;;;;;;;21002572;28;20037;-68
2023/07/05 21:21:06;;;;;;;8.85;4.82;;;;;;;;;;21002508;28;20041;-69
2023/07/05 21:31:08;;;;;;;10.13;5.35;;;;;;;;;;21001519;28;20478;-68
2023/07/05 21:41:10;;;;;;;12.38;6.50;;;;;;;;;;21000971;28;20045;-69
2023/07/05 21:51:12;;;;;;;9.32;5.72;;;;;;;;;;20999826;28;20106;-68
2023/07/05 22:01:14;;;;;;;14.55;6.35;;;;;;;;;;20999385;28;20451;-70
2023/07/05 22:11:15;;;;;;;10.75;5.70;;;;;;;;;;20998513;28;20558;-68
2023/07/05 22:21:17;;;;;;;9.70;5.95;;;;;;;;;;20998234;28;20485;-69
2023/07/05 22:31:18;;;;;;;16.58;6.43;;;;;;;;;;20997184;28;20098;-68
2023/07/05 22:41:19;;;;;;;13.10;5.78;;;;;;;;;;20996746;28;20052;-68
2023/07/05 22:51:21;;;;;;;13.30;6.47;;;;;;;;;;20996893;28;20045;-68
2023/07/05 23:01:22;;;;;;;10.15;5.70;;;;;;;;;;20995139;28;20101;-69
2023/07/05 23:11:24;;;;;;;11.20;5.68;;;;;;;;;;20995607;28;20041;-68
2023/07/05 23:21:25;;;;;;;9.52;5.18;;;;;;;;;;20995413;28;20056;-68
2023/07/05 23:31:27;;;;;;;9.38;4.95;;;;;;;;;;20994828;28;20475;-68
2023/07/05 23:41:31;;;;;;;12.20;6.63;;;;;;;;;;20994626;28;20043;-67
2023/07/05 23:51:32;;;;;;;10.43;5.80;;;;;;;;;;21005123;28;20045;-67
